CPA123 VHHX-RJAA
Flight info
| Callsign | CPA123 |
|---|---|
| Flight time | N/A |
| Altitude | 37000 |
| Route | ENVAR M750 BILLY RUTAS |
| Aircraft | B77W/H-SDE1E2E3FGHIJ2J3J4J5M1RWXY/LB1D1 |
Departure
| Time | N/A |
|---|---|
| Airport | Hong Kong International Airport Kai Tak (VHHX) |
Arrival
| Time | 2026-05-06 12:57 |
|---|---|
| Airport | Narita International Airport (RJAA) |
| Time | Latitude | Longitude | Altitude | Speed | Heading |
|---|---|---|---|---|---|
| 2026-05-06 12:29 | 35.87696 | 140.25611 | 37139 ft | 439 kts | 148° |
| 2026-05-06 12:29 | 35.85715 | 140.28643 | 37157 ft | 462 kts | 138° |
| 2026-05-06 12:29 | 35.83738 | 140.31729 | 37110 ft | 448 kts | 149° |
| 2026-05-06 12:30 | 35.81435 | 140.34105 | 37135 ft | 420 kts | 161° |
| 2026-05-06 12:30 | 35.78989 | 140.35945 | 37118 ft | 406 kts | 166° |
| 2026-05-06 12:30 | 35.73986 | 140.39062 | 37040 ft | 391 kts | 180° |
| 2026-05-06 12:31 | 35.71412 | 140.39416 | 36615 ft | 367 kts | 197° |
| 2026-05-06 12:31 | 35.68951 | 140.38932 | 36072 ft | 352 kts | 207° |
| 2026-05-06 12:31 | 35.66704 | 140.37800 | 34855 ft | 351 kts | 216° |
| 2026-05-06 12:31 | 35.64319 | 140.36647 | 33118 ft | 392 kts | 201° |
| 2026-05-06 12:32 | 35.61428 | 140.36464 | 31577 ft | 435 kts | 187° |
| 2026-05-06 12:32 | 35.58409 | 140.36655 | 31169 ft | 426 kts | 189° |
| 2026-05-06 12:32 | 35.55510 | 140.36860 | 31055 ft | 417 kts | 181° |
| 2026-05-06 12:32 | 35.52705 | 140.37951 | 30982 ft | 427 kts | 167° |
| 2026-05-06 12:33 | 35.47794 | 140.42026 | 30784 ft | 431 kts | 149° |
| 2026-05-06 12:33 | 35.45737 | 140.44722 | 30583 ft | 437 kts | 139° |
| 2026-05-06 12:33 | 35.44087 | 140.47904 | 30228 ft | 452 kts | 122° |
| 2026-05-06 12:34 | 35.43275 | 140.51704 | 29722 ft | 472 kts | 98° |
| 2026-05-06 12:34 | 35.43571 | 140.55695 | 29262 ft | 479 kts | 75° |
| 2026-05-06 12:34 | 35.44953 | 140.59385 | 28809 ft | 475 kts | 52° |
| 2026-05-06 12:34 | 35.47095 | 140.62411 | 28431 ft | 465 kts | 43° |
| 2026-05-06 12:35 | 35.49197 | 140.65378 | 28303 ft | 457 kts | 51° |
| 2026-05-06 12:35 | 35.50875 | 140.68641 | 28206 ft | 447 kts | 63° |
| 2026-05-06 12:35 | 35.52121 | 140.72083 | 28098 ft | 435 kts | 71° |
| 2026-05-06 12:35 | 35.53111 | 140.75546 | 27928 ft | 426 kts | 73° |
| 2026-05-06 12:36 | 35.54043 | 140.78970 | 27662 ft | 420 kts | 73° |
| 2026-05-06 12:36 | 35.54989 | 140.82352 | 27318 ft | 417 kts | 73° |
| 2026-05-06 12:36 | 35.55615 | 140.85760 | 26862 ft | 406 kts | 95° |
| 2026-05-06 12:36 | 35.55316 | 140.89127 | 26465 ft | 385 kts | 117° |
| 2026-05-06 12:37 | 35.54256 | 140.92026 | 26119 ft | 360 kts | 136° |
| 2026-05-06 12:37 | 35.52720 | 140.94257 | 25785 ft | 336 kts | 152° |
| 2026-05-06 12:37 | 35.50871 | 140.95846 | 25422 ft | 314 kts | 167° |
| 2026-05-06 12:37 | 35.48891 | 140.96779 | 25058 ft | 296 kts | 179° |
| 2026-05-06 12:38 | 35.46906 | 140.97110 | 24698 ft | 281 kts | 191° |
| 2026-05-06 12:38 | 35.45012 | 140.96915 | 24350 ft | 269 kts | 201° |
| 2026-05-06 12:38 | 35.43247 | 140.96259 | 23986 ft | 260 kts | 211° |
| 2026-05-06 12:38 | 35.41686 | 140.95214 | 23637 ft | 253 kts | 219° |
| 2026-05-06 12:39 | 35.40286 | 140.93911 | 23203 ft | 251 kts | 224° |
| 2026-05-06 12:39 | 35.39012 | 140.92466 | 22800 ft | 248 kts | 230° |
| 2026-05-06 12:39 | 35.38012 | 140.90755 | 22371 ft | 247 kts | 244° |
| 2026-05-06 12:39 | 35.37421 | 140.88812 | 21988 ft | 246 kts | 249° |
| 2026-05-06 12:40 | 35.36876 | 140.86824 | 21601 ft | 246 kts | 249° |
| 2026-05-06 12:40 | 35.36331 | 140.84842 | 21234 ft | 245 kts | 249° |
| 2026-05-06 12:40 | 35.35783 | 140.82870 | 20874 ft | 244 kts | 249° |
| 2026-05-06 12:40 | 35.35234 | 140.80908 | 20510 ft | 242 kts | 251° |
| 2026-05-06 12:41 | 35.35044 | 140.78826 | 19756 ft | 260 kts | 274° |
| 2026-05-06 12:41 | 35.35693 | 140.76640 | 19067 ft | 285 kts | 294° |
| 2026-05-06 12:41 | 35.36957 | 140.74689 | 18642 ft | 299 kts | 307° |
| 2026-05-06 12:41 | 35.38689 | 140.73240 | 18161 ft | 319 kts | 330° |
| 2026-05-06 12:42 | 35.40859 | 140.72466 | 17702 ft | 328 kts | 338° |
| 2026-05-06 12:42 | 35.43093 | 140.71848 | 17318 ft | 328 kts | 339° |
| 2026-05-06 12:42 | 35.45316 | 140.71257 | 16994 ft | 325 kts | 339° |
| 2026-05-06 12:42 | 35.47522 | 140.70660 | 16680 ft | 323 kts | 339° |
| 2026-05-06 12:43 | 35.49707 | 140.70051 | 16345 ft | 320 kts | 339° |
| 2026-05-06 12:43 | 35.51874 | 140.69431 | 15997 ft | 319 kts | 339° |
| 2026-05-06 12:43 | 35.54026 | 140.68805 | 15654 ft | 318 kts | 339° |
| 2026-05-06 12:43 | 35.56170 | 140.68175 | 15318 ft | 316 kts | 339° |
| 2026-05-06 12:44 | 35.58308 | 140.67542 | 14985 ft | 315 kts | 339° |
| 2026-05-06 12:44 | 35.60433 | 140.66911 | 14651 ft | 314 kts | 340° |
| 2026-05-06 12:44 | 35.62558 | 140.66278 | 14306 ft | 314 kts | 340° |
| 2026-05-06 12:44 | 35.64647 | 140.65655 | 13978 ft | 313 kts | 340° |
| 2026-05-06 12:45 | 35.66786 | 140.65018 | 13634 ft | 311 kts | 340° |
| 2026-05-06 12:45 | 35.68882 | 140.64393 | 13309 ft | 309 kts | 340° |
| 2026-05-06 12:45 | 35.73006 | 140.63162 | 12668 ft | 305 kts | 340° |
| 2026-05-06 12:46 | 35.75069 | 140.62557 | 12341 ft | 304 kts | 341° |
| 2026-05-06 12:46 | 35.77121 | 140.61956 | 12023 ft | 302 kts | 340° |
| 2026-05-06 12:46 | 35.79158 | 140.61345 | 11712 ft | 300 kts | 340° |
| 2026-05-06 12:46 | 35.81183 | 140.60730 | 11395 ft | 299 kts | 340° |
| 2026-05-06 12:47 | 35.83166 | 140.60053 | 11025 ft | 290 kts | 331° |
| 2026-05-06 12:47 | 35.84771 | 140.58658 | 10656 ft | 277 kts | 307° |
| 2026-05-06 12:47 | 35.85985 | 140.56858 | 10468 ft | 269 kts | 304° |
| 2026-05-06 12:47 | 35.87146 | 140.55072 | 10235 ft | 266 kts | 303° |
| 2026-05-06 12:48 | 35.88288 | 140.53311 | 9971 ft | 264 kts | 303° |
| 2026-05-06 12:48 | 35.89438 | 140.51542 | 9624 ft | 265 kts | 304° |
| 2026-05-06 12:48 | 35.90594 | 140.49770 | 9284 ft | 265 kts | 304° |
| 2026-05-06 12:48 | 35.91752 | 140.48003 | 8972 ft | 265 kts | 304° |
| 2026-05-06 12:49 | 35.92909 | 140.46237 | 8629 ft | 265 kts | 304° |
| 2026-05-06 12:49 | 35.94068 | 140.44471 | 8328 ft | 264 kts | 304° |
| 2026-05-06 12:49 | 35.95223 | 140.42709 | 8013 ft | 263 kts | 303° |
| 2026-05-06 12:49 | 35.96040 | 140.40755 | 7529 ft | 257 kts | 279° |
| 2026-05-06 12:50 | 35.96178 | 140.38574 | 7180 ft | 255 kts | 269° |
| 2026-05-06 12:50 | 35.96234 | 140.36387 | 6889 ft | 255 kts | 269° |
| 2026-05-06 12:50 | 35.96298 | 140.34207 | 6612 ft | 253 kts | 269° |
| 2026-05-06 12:50 | 35.96363 | 140.32063 | 6511 ft | 245 kts | 269° |
| 2026-05-06 12:51 | 35.96425 | 140.30002 | 6431 ft | 236 kts | 269° |
| 2026-05-06 12:51 | 35.96470 | 140.28154 | 6339 ft | 224 kts | 264° |
| 2026-05-06 12:51 | 35.96016 | 140.26436 | 6189 ft | 206 kts | 229° |
| 2026-05-06 12:51 | 35.95322 | 140.25720 | 6114 ft | 196 kts | 206° |
| 2026-05-06 12:52 | 35.93595 | 140.25394 | 5962 ft | 184 kts | 174° |
| 2026-05-06 12:52 | 35.92795 | 140.25699 | 5791 ft | 182 kts | 159° |
| 2026-05-06 12:52 | 35.91326 | 140.26719 | 5372 ft | 179 kts | 154° |
| 2026-05-06 12:52 | 35.90621 | 140.27235 | 5159 ft | 178 kts | 154° |
| 2026-05-06 12:53 | 35.89552 | 140.28017 | 4828 ft | 179 kts | 154° |
| 2026-05-06 12:53 | 35.88489 | 140.28793 | 4492 ft | 177 kts | 154° |
| 2026-05-06 12:53 | 35.87440 | 140.29558 | 4161 ft | 172 kts | 154° |
| 2026-05-06 12:53 | 35.86424 | 140.30298 | 3651 ft | 169 kts | 154° |
| 2026-05-06 12:54 | 35.85414 | 140.31032 | 3100 ft | 167 kts | 154° |
| 2026-05-06 12:54 | 35.84466 | 140.31723 | 2780 ft | 150 kts | 155° |
| 2026-05-06 12:54 | 35.83599 | 140.32353 | 2371 ft | 140 kts | 155° |
| 2026-05-06 12:54 | 35.82783 | 140.32944 | 1933 ft | 133 kts | 155° |
| 2026-05-06 12:55 | 35.81993 | 140.33516 | 1419 ft | 131 kts | 155° |
| 2026-05-06 12:55 | 35.81220 | 140.34077 | 1124 ft | 131 kts | 154° |
| 2026-05-06 12:55 | 35.80417 | 140.34659 | 1044 ft | 137 kts | 153° |
| 2026-05-06 12:55 | 35.79599 | 140.35253 | 1012 ft | 135 kts | 153° |
| 2026-05-06 12:56 | 35.78781 | 140.35861 | 781 ft | 141 kts | 152° |
| 2026-05-06 12:56 | 35.77961 | 140.36454 | 374 ft | 131 kts | 149° |
| 2026-05-06 12:56 | 35.77194 | 140.37009 | 149 ft | 126 kts | 149° |
| 2026-05-06 12:56 | 35.76541 | 140.37478 | 150 ft | 83 kts | 149° |
| 2026-05-06 12:57 | 35.76123 | 140.37785 | 149 ft | 67 kts | 149° |
| 2026-05-06 12:57 | 35.75824 | 140.38149 | 150 ft | 57 kts | 121° |
| 2026-05-06 12:57 | 35.75571 | 140.38435 | 149 ft | 46 kts | 150° |
| 2026-05-06 12:57 | 35.75352 | 140.38592 | 149 ft | 30 kts | 146° |
| 2026-05-06 12:58 | 35.75317 | 140.38654 | 149 ft | 3 kts | 70° |
| 2026-05-06 12:58 | 35.75330 | 140.38667 | 149 ft | 3 kts | 32° |
| 2026-05-06 12:58 | 35.75345 | 140.38678 | 149 ft | 3 kts | 28° |
| 2026-05-06 12:58 | 35.75362 | 140.38688 | 149 ft | 3 kts | 26° |
| 2026-05-06 12:59 | 35.75378 | 140.38698 | 149 ft | 3 kts | 25° |
| 2026-05-06 12:59 | 35.75403 | 140.38711 | 149 ft | 8 kts | 24° |
| 2026-05-06 12:59 | 35.75487 | 140.38757 | 149 ft | 19 kts | 24° |
| 2026-05-06 12:59 | 35.75640 | 140.38839 | 149 ft | 29 kts | 24° |
| 2026-05-06 13:00 | 35.75786 | 140.38832 | 149 ft | 21 kts | 337° |
| 2026-05-06 13:00 | 35.75934 | 140.38875 | 149 ft | 25 kts | 39° |
| 2026-05-06 13:00 | 35.76101 | 140.38974 | 149 ft | 31 kts | 21° |
| 2026-05-06 13:00 | 35.76323 | 140.39098 | 149 ft | 39 kts | 25° |
| 2026-05-06 13:01 | 35.76459 | 140.39209 | 149 ft | 9 kts | 78° |
| 2026-05-06 13:01 | 35.76496 | 140.39313 | 149 ft | 16 kts | 37° |
| 2026-05-06 13:01 | 35.76632 | 140.39386 | 149 ft | 27 kts | 22° |
| 2026-05-06 13:01 | 35.76823 | 140.39469 | 149 ft | 17 kts | 358° |
| 2026-05-06 13:02 | 35.76937 | 140.39401 | 149 ft | 23 kts | 329° |
| 2026-05-06 13:02 | 35.77081 | 140.39408 | 149 ft | 25 kts | 30° |
| 2026-05-06 13:02 | 35.77273 | 140.39515 | 149 ft | 36 kts | 24° |
| 2026-05-06 13:02 | 35.77451 | 140.39528 | 149 ft | 26 kts | 334° |
| 2026-05-06 13:03 | 35.77642 | 140.39394 | 149 ft | 37 kts | 330° |
| 2026-05-06 13:03 | 35.77871 | 140.39198 | 148 ft | 38 kts | 307° |
| 2026-05-06 13:03 | 35.77880 | 140.39079 | 148 ft | 10 kts | 245° |
| 2026-05-06 13:03 | 35.77849 | 140.39002 | 148 ft | 10 kts | 240° |
| 2026-05-06 13:04 | 35.77814 | 140.38928 | 148 ft | 10 kts | 240° |
| 2026-05-06 13:04 | 35.77776 | 140.38858 | 148 ft | 10 kts | 226° |
| 2026-05-06 13:04 | 35.77724 | 140.38824 | 148 ft | 5 kts | 184° |
| 2026-05-06 13:04 | 35.77691 | 140.38845 | 148 ft | 5 kts | 158° |
| 2026-05-06 13:05 | 35.77658 | 140.38830 | 148 ft | 5 kts | 217° |
| 2026-05-06 13:05 | 35.77646 | 140.38816 | 148 ft | 1 kts | 225° |
| 2026-05-06 13:05 | 35.77641 | 140.38809 | 148 ft | 1 kts | 230° |
| 2026-05-06 13:05 | 35.77636 | 140.38800 | 148 ft | 1 kts | 233° |
| 2026-05-06 13:06 | 35.77631 | 140.38790 | 148 ft | 1 kts | 237° |
| 2026-05-06 13:06 | 35.77629 | 140.38787 | 148 ft | 0 kts | 237° |
| 2026-05-06 13:07 | 35.77627 | 140.38782 | 148 ft | 0 kts | 238° |
| 2026-05-06 13:08 | 35.77622 | 140.38772 | 148 ft | 0 kts | 238° |